• Join FlightAware (Why Join?)
  • Login
  • US Flag 
05:05PM EDT


 

Airport Tracker/Info


-or-


 

Live Flight TrackerFlight Track Log ✈ JBU673 ✈ 12-Apr-2013 ✈ KJFK - KLAX

Flight Track Log - Related Links

Times and Time Zones

All times are in EDT time to prevent confusion due to time zone crossing. See the JBU673 flight status page for this flight to view local times or setup timezone preferences in your user account.

Time Position Orientation Groundspeed Altitude Reporting Facility
EDT Latitude Longitude Course Direction KTS MPH feet Rate Location/Type
11:22AM 40.6500 -73.7333 333° Northwest 162 186 1,900  Level New York TRACON
11:23AM 40.6667 -73.6667 72° East 218 251 3,200 1,500 Climbing New York TRACON
11:24AM 40.6833 -73.5667 78° East 289 333 4,900 1,920 Climbing New York TRACON
11:25AM 41.0091 -74.0568 331° Northwest  Level FlightAware Approximate
11:25AM 40.7500 -73.4667 49° Northeast 329 379 7,100  Level New York TRACON
11:26AM 41.1088 -74.1316 331° Northwest  Level FlightAware Approximate
11:26AM 40.8167 -73.4167 30° Northeast 341 392 9,500  Level New York TRACON
11:27AM 41.2072 -74.2072 323° Northwest  Level FlightAware Approximate
11:27AM 40.8833 -73.5000 317° Northwest 318 366 10,900  Level New York TRACON
11:28AM 41.3079 -74.2775 333° Northwest  Level FlightAware Approximate
11:28AM 40.9500 -73.6000 311° West 361 415 12,400  Level New York TRACON
11:29AM 41.0000 -73.7000 304° West 367 422 13,900 1,620 Climbing New York TRACON
11:30AM 41.0833 -73.8167 313° West 476 548 15,700 1,440 Climbing New York TRACON
11:31AM 41.1500 -73.9333 307° West 403 464 16,800 660 Climbing New York TRACON
11:33AM 41.2303 -74.0650 309° West 438 504 17,200 1,140 Climbing New York Center
11:34AM 41.3081 -74.1850 311° West 438 504 19,400 1,920 Climbing New York Center
11:35AM 41.3775 -74.3017 308° West 432 497 21,000 1,200 Climbing New York Center
11:36AM 41.4442 -74.4325 304° West 427 491 21,900 1,020 Climbing New York Center
11:37AM 41.5042 -74.5797 299° West 422 486 23,100 1,020 Climbing New York Center
11:38AM 41.5642 -74.7192 300° West 422 486 24,000 900 Climbing New York Center
11:39AM 41.6239 -74.8586 300° West 428 493 24,900 900 Climbing New York Center
11:40AM 41.6856 -75.0011 300° West 433 498 25,800 780 Climbing New York Center
11:41AM 41.7450 -75.1467 299° West 439 505 26,600 660 Climbing New York Center
11:42AM 41.8061 -75.2928 299° West 449 517 27,200 660 Climbing New York Center
11:43AM 41.8689 -75.4417 300° West 449 517 28,000 360 Climbing New York Center
11:44AM 41.9319 -75.5883 300° West 449 517 28,000 240 Level New York Center
11:45AM 41.9922 -75.7378 299° West 449 517 28,600 420 Climbing New York Center
11:46AM 42.0525 -75.8875 299° West 449 517 28,900 600 Climbing New York Center
11:47AM 42.1333 -76.1000 297° West 450 518 30,300 660 Climbing Toronto Center
11:48AM 42.1719 -76.1839 302° West 457 526 30,300 360 Level Cleveland Center
11:49AM 42.2217 -76.3406 293° West 449 517 30,900 600 Climbing Cleveland Center
11:50AM 42.2753 -76.5025 294° West 443 510 31,500 420 Climbing Cleveland Center
11:51AM 42.3244 -76.6567 293° West 443 510 31,800 240 Climbing Cleveland Center
11:52AM 42.3714 -76.8139 292° West 449 517 32,000 60 Climbing Cleveland Center
11:53AM 42.4203 -76.9658 294° West 444 511 32,000  Level Cleveland Center
11:54AM 42.4664 -77.1125 293° West 444 511 32,000  Level Cleveland Center
11:55AM 42.5147 -77.2647 293° West 444 511 32,000 -60 Level Cleveland Center
11:56AM 42.5583 -77.4119 292° West 439 505 31,900 -60 Descending Cleveland Center
11:57AM 42.6036 -77.5478 294° West 433 498 31,900  Level Cleveland Center
11:58AM 42.6472 -77.6953 292° West 428 493 31,900  Level Cleveland Center
11:59AM 42.6903 -77.8431 292° West 428 493 32,000  Climbing Cleveland Center
12:00PM 42.7356 -77.9911 293° West 428 493 32,000  Level Cleveland Center
12:01PM 42.7806 -78.1419 292° West 428 493 32,000  Level Cleveland Center
12:02PM 42.8231 -78.2903 291° West 423 487 32,000  Level Cleveland Center
12:03PM 42.8697 -78.4389 293° West 428 493 32,000  Level Cleveland Center
12:04PM 42.9119 -78.5875 291° West 428 493 32,000  Level Cleveland Center
12:05PM 42.9375 -78.7456 283° West 423 487 32,000  Level Cleveland Center
12:06PM 42.9439 -78.8986 273° West 418 481 32,000  Level Cleveland Center
12:06PM 42.9333 -78.9667 258° West 410 472 32,000  Level Toronto Center
12:07PM 42.9500 -79.1333 278° West 410 472 32,000  Level Toronto Center
12:08PM 42.9500 -79.2833 270° West 420 483 32,000  Level Toronto Center
12:09PM 42.9667 -79.4500 278° West 420 483 32,000  Level Toronto Center
12:10PM 42.9667 -79.6167 270° West 420 483 32,000  Level Toronto Center
12:11PM 42.9833 -79.7667 279° West 420 483 32,000  Level Toronto Center
12:12PM 42.9833 -79.9333 270° West 420 483 32,000  Level Toronto Center
12:13PM 42.9833 -80.0833 270° West 410 472 32,000 -60 Level Toronto Center
12:14PM 43.0000 -80.2500 278° West 410 472 31,900  Descending Toronto Center
12:15PM 43.0000 -80.4000 270° West 410 472 32,000  Climbing Toronto Center
12:16PM 43.0167 -80.5667 278° West 420 483 32,000  Level Toronto Center
12:17PM 43.0167 -80.7000 270° West 420 483 32,000 60 Level Toronto Center
12:18PM 43.0167 -80.8833 270° West 420 483 32,200 420 Climbing Toronto Center
12:19PM 43.0167 -81.0500 270° West 420 483 32,900 660 Climbing Toronto Center
12:20PM 43.0333 -81.2000 279° West 420 483 33,600 540 Climbing Toronto Center
12:21PM 43.0500 -81.3500 279° West 420 483 34,000 180 Climbing Toronto Center
12:22PM 43.0833 -81.5000 287° West 420 483 34,000  Level Toronto Center
12:23PM 43.1000 -81.6667 278° West 420 483 34,000  Level Toronto Center
12:24PM 43.1333 -81.8333 285° West 430 495 34,000  Level Toronto Center
12:25PM 43.1333 -81.9833 270° West 430 495 34,000  Level Toronto Center
12:26PM 43.1667 -82.1500 285° West 420 483 34,000  Level Toronto Center
12:27PM 43.1833 -82.3000 279° West 420 483 34,000  Level Toronto Center
12:28PM 43.2167 -82.4667 285° West 430 495 34,000  Level Toronto Center
12:29PM 43.2500 -82.6333 285° West 430 495 34,000  Level Toronto Center
12:29PM 43.2458 -82.6608 258° West 431 496 34,000  Level Cleveland Center
12:30PM 43.2556 -82.8208 275° West 431 496 34,000  Level Cleveland Center
12:31PM 43.2564 -82.9806 270° West 426 490 34,000  Level Cleveland Center
12:32PM 43.2550 -83.1400 269° West 421 484 34,000  Level Cleveland Center
12:33PM 43.2514 -83.2994 268° West 421 484 34,000  Level Cleveland Center
12:34PM 43.2536 -83.4650 271° West 421 484 34,000  Level Cleveland Center
12:35PM 43.2517 -83.6244 269° West 421 484 34,000  Level Cleveland Center
12:36PM 43.2494 -83.7897 269° West 427 491 34,000  Level Cleveland Center
12:37PM 43.2489 -83.9553 270° West 427 491 34,000  Level Cleveland Center
12:38PM 43.2439 -84.1144 268° West 427 491 34,000  Level Cleveland Center
12:39PM 43.2431 -84.2769 270° West 422 486 34,000  Level Cleveland Center
12:41PM 43.2392 -84.5358 269° West 425 489 34,000  Level Chicago Center
12:42PM 43.2367 -84.6983 269° West 428 493 34,000  Level Chicago Center
12:43PM 43.2339 -84.8614 269° West 430 495 34,000  Level Chicago Center
12:44PM 43.2308 -85.0219 269° West 425 489 34,000  Level Chicago Center
12:45PM 43.2269 -85.2172 269° West 428 493 34,000  Level Chicago Center
12:46PM 43.2236 -85.3781 268° West 426 490 34,100  Climbing Chicago Center
12:47PM 43.2200 -85.5361 268° West 420 483 34,000 -60 Descending Chicago Center
12:48PM 43.2158 -85.6922 268° West 415 478 34,000  Level Chicago Center
12:49PM 43.2111 -85.8464 268° West 412 474 34,000  Level Chicago Center
12:50PM 43.2067 -86.0297 268° West 411 473 34,000  Level Chicago Center
12:51PM 43.2025 -86.1833 268° West 412 474 34,000  Level Chicago Center
12:52PM 43.1969 -86.3356 267° West 407 468 34,000  Level Chicago Center
12:53PM 43.1925 -86.4883 268° West 405 466 34,000  Level Chicago Center
12:54PM 43.1872 -86.6436 267° West 407 468 34,000  Level Chicago Center
12:56PM 43.1800 -86.8294 267° West 410 472 34,000  Level Chicago Center
12:57PM 43.1750 -86.9836 268° West 407 468 34,000  Level Chicago Center
12:58PM 43.1675 -87.1383 266° West 410 472 34,000  Level Chicago Center
12:59PM 43.1614 -87.2919 267° West 406 467 34,000  Level Chicago Center
01:00PM 43.1547 -87.4547 267° West 405 466 34,000  Level Chicago Center
01:01PM 43.1494 -87.6094 267° West 405 466 34,000  Level Chicago Center
01:02PM 43.1422 -87.7625 266° West 404 465 34,000  Level Chicago Center
01:03PM 43.1333 -87.9406 266° West 403 464 34,000  Level Chicago Center
01:04PM 43.1258 -88.0931 266° West 402 463 34,000  Level Chicago Center
01:05PM 43.1183 -88.2486 266° West 407 468 34,000  Level Chicago Center
01:06PM 43.1183 -88.4031 270° West 404 465 34,000  Level Chicago Center
01:07PM 43.1211 -88.5594 271° West 407 468 34,000  Level Chicago Center
01:08PM 43.1228 -88.7156 271° West 406 467 34,000  Level Chicago Center
01:09PM 43.1253 -88.8722 271° West 408 470 34,000  Level Chicago Center
01:10PM 43.1275 -89.0514 271° West 405 466 34,000  Level Chicago Center
01:11PM 43.1289 -89.2069 271° West 406 467 34,000  Level Chicago Center
01:12PM 43.1294 -89.3644 270° West 412 474 34,000  Level Chicago Center
01:13PM 43.1319 -89.5242 271° West 418 481 34,000  Level Chicago Center
01:14PM 43.1314 -89.6831 270° West 420 483 34,000  Level Chicago Center
01:15PM 43.1331 -89.8411 271° West 417 480 34,000  Level Chicago Center
01:16PM 43.1250 -90.0214 267° West 419 482 34,000  Level Chicago Center
01:17PM 43.1033 -90.1736 259° West 412 474 34,000  Level Chicago Center
01:18PM 43.0842 -90.3281 260° West 416 479 34,000  Level Chicago Center
01:19PM 43.0636 -90.4825 260° West 417 480 34,000  Level Chicago Center
01:20PM 43.0361 -90.6642 258° West 413 475 34,000  Level Chicago Center
01:21PM 43.0114 -90.8483 260° West 414 476 34,000  Level Chicago Center
01:22PM 43.0028 -90.9097 259° West 414 476 34,000  Level Minneapolis Center
01:23PM 42.9817 -91.0636 259° West 416 479 34,000  Level Minneapolis Center
01:24PM 42.9600 -91.2167 259° West 416 479 34,000  Level Minneapolis Center
01:25PM 42.9383 -91.3700 259° West 417 480 34,000  Level Minneapolis Center
01:26PM 42.9122 -91.5517 259° West 415 478 34,000  Level Minneapolis Center
01:27PM 42.8897 -91.6997 258° West 413 475 34,000  Level Minneapolis Center
01:28PM 42.8675 -91.8475 258° West 411 473 34,000  Level Minneapolis Center
01:29PM 42.8450 -91.9975 258° West 410 472 34,000  Level Minneapolis Center
01:30PM 42.8183 -92.1797 259° West 413 475 34,000  Level Minneapolis Center
01:31PM 42.7947 -92.3325 258° West 415 478 34,000  Level Minneapolis Center
01:32PM 42.7717 -92.4839 258° West 413 475 34,000  Level Minneapolis Center
01:33PM 42.7478 -92.6317 258° West 405 466 34,000  Level Minneapolis Center
01:34PM 42.7250 -92.7792 258° West 404 465 34,000  Level Minneapolis Center
01:35PM 42.7017 -92.9278 258° West 404 465 34,000  Level Minneapolis Center
01:36PM 42.6733 -93.1067 258° West 406 467 34,100  Climbing Minneapolis Center
01:37PM 42.6494 -93.2533 258° West 403 464 34,000 -60 Descending Minneapolis Center
01:38PM 42.6264 -93.3986 258° West 399 459 34,000  Level Minneapolis Center
01:39PM 42.6019 -93.5431 257° West 396 456 34,000  Level Minneapolis Center
01:40PM 42.5783 -93.6881 258° West 396 456 34,000  Level Minneapolis Center
01:42PM 42.5492 -93.8633 257° West 399 459 34,000  Level Minneapolis Center
01:43PM 42.5242 -94.0122 257° West 405 466 34,000  Level Minneapolis Center
01:44PM 42.4986 -94.1617 257° West 409 471 34,000  Level Minneapolis Center
01:45PM 42.4744 -94.3100 258° West 408 470 34,000  Level Minneapolis Center
01:46PM 42.4494 -94.4522 257° West 404 465 34,100  Climbing Minneapolis Center
01:47PM 42.4181 -94.6261 256° West 399 459 34,000 -120 Descending Minneapolis Center
01:48PM 42.3931 -94.7689 257° West 392 451 33,900  Descending Minneapolis Center
01:49PM 42.3672 -94.9156 257° West 398 458 34,000  Climbing Minneapolis Center
01:50PM 42.3411 -95.0619 256° West 400 460 34,000  Level Minneapolis Center
01:51PM 42.3150 -95.2083 256° West 400 460 34,000  Level Minneapolis Center
01:52PM 42.2872 -95.3583 256° West 407 468 34,000  Level Minneapolis Center
01:53PM 42.2544 -95.5381 256° West 411 473 34,100  Climbing Minneapolis Center
01:54PM 42.2261 -95.6892 256° West 414 476 34,000 -60 Descending Minneapolis Center
01:55PM 42.1989 -95.8369 256° West 411 473 34,000  Level Minneapolis Center
01:56PM 42.1708 -95.9839 256° West 409 471 34,000  Level Minneapolis Center
01:57PM 42.1425 -96.1306 255° West 407 468 34,000  Level Minneapolis Center
01:58PM 42.1086 -96.3069 256° West 408 470 34,000  Level Minneapolis Center
01:59PM 42.0750 -96.4817 256° West 404 465 34,000  Level Minneapolis Center
02:00PM 42.0472 -96.6275 256° West 404 465 34,000  Level Minneapolis Center
02:01PM 42.0181 -96.7722 255° West 403 464 34,000  Level Minneapolis Center
02:02PM 41.9889 -96.9183 255° West 405 466 34,000  Level Minneapolis Center
02:03PM 41.9608 -97.0656 256° West 408 470 34,000  Level Minneapolis Center
02:04PM 41.9306 -97.2133 255° West 411 473 34,000  Level Minneapolis Center
02:05PM 41.8956 -97.3881 255° West 407 468 34,000  Level Minneapolis Center
02:06PM 41.8656 -97.5333 255° West 406 467 34,000  Level Minneapolis Center
02:07PM 41.8369 -97.6758 255° West 399 459 34,000  Level Minneapolis Center
02:09PM 41.8069 -97.8169 254° West 397 457 34,000  Level Minneapolis Center
02:10PM 41.7792 -97.9592 255° West 395 455 34,000  Level Minneapolis Center
02:11PM 41.7481 -98.0992 253° West 394 453 34,000  Level Minneapolis Center
02:12PM 41.7153 -98.2617 255° West 393 452 34,000  Level Minneapolis Center
02:13PM 41.6836 -98.4025 253° West 395 455 34,000  Level Minneapolis Center
02:14PM 41.6542 -98.5431 254° West 394 453 34,000  Level Minneapolis Center
02:15PM 41.6250 -98.6828 254° West 393 452 34,000  Level Minneapolis Center
02:16PM 41.5931 -98.8236 253° West 397 457 34,000  Level Minneapolis Center
02:17PM 41.5586 -98.9864 254° West 387 445 34,000 60 Level Minneapolis Center
02:18PM 41.5319 -99.1056 253° West 386 444 34,200 120 Climbing Minneapolis Center
02:18PM 41.5086 -99.2089 253° West 394 453 34,300 240 Climbing Denver Center
02:19PM 41.4772 -99.3522 254° West 402 463 34,700 420 Climbing Denver Center
02:21PM 41.4444 -99.4992 253° West 411 473 35,200 600 Climbing Denver Center
02:22PM 41.4050 -99.6761 254° West 416 479 36,000 360 Climbing Denver Center
02:23PM 41.3758 -99.8042 253° West 410 472 36,000  Level Denver Center
02:24PM 41.3383 -99.9664 253° West 412 474 36,000  Level Denver Center
02:25PM 41.3064 -100.1064 253° West 414 476 36,000  Level Denver Center
02:26PM 41.2683 -100.2697 253° West 415 478 36,000  Level Denver Center
02:27PM 41.2367 -100.4092 253° West 415 478 36,000  Level Denver Center
02:28PM 41.1986 -100.5731 253° West 417 480 36,000  Level Denver Center
02:29PM 41.1650 -100.7119 252° West 418 481 36,100  Climbing Denver Center
02:30PM 41.1278 -100.8728 253° West 412 474 36,000 -60 Descending Denver Center
02:31PM 41.0947 -101.0078 252° West 408 470 36,000  Level Denver Center
02:32PM 41.0578 -101.1642 253° West 402 463 36,000  Level Denver Center
02:33PM 41.0247 -101.3000 252° West 406 467 36,000  Level Denver Center
02:34PM 40.9808 -101.4828 252° West 410 472 36,000  Level Denver Center
02:35PM 40.9483 -101.6194 253° West 410 472 36,000  Level Denver Center
02:36PM 40.9064 -101.7794 251° West 413 475 36,000  Level Denver Center
02:37PM 40.8722 -101.9158 252° West 410 472 36,000  Level Denver Center
02:38PM 40.8325 -102.0739 252° West 407 468 36,000  Level Denver Center
02:39PM 40.7944 -102.2333 253° West 409 471 36,000  Level Denver Center
02:40PM 40.7528 -102.3931 251° West 414 476 36,000  Level Denver Center
02:42PM 40.7186 -102.5317 252° West 416 479 36,000  Level Denver Center
02:43PM 40.6786 -102.6833 251° West 418 481 36,100  Climbing Denver Center
02:44PM 40.6408 -102.8294 251° West 418 481 36,100  Level Denver Center
02:45PM 40.6042 -102.9742 252° West 413 475 36,100 -60 Level Denver Center
02:46PM 40.5614 -103.1350 251° West 399 459 36,000 -60 Descending Denver Center
02:47PM 40.5258 -103.2731 251° West 396 456 36,000  Level Denver Center
02:48PM 40.4889 -103.4103 251° West 396 456 36,000  Level Denver Center
02:49PM 40.4514 -103.5514 251° West 405 466 36,000  Level Denver Center
02:50PM 40.4133 -103.6928 251° West 409 471 36,100  Climbing Denver Center
02:51PM 40.3761 -103.8356 251° West 409 471 36,100 -60 Level Denver Center
02:52PM 40.3378 -103.9775 251° West 406 467 36,000 -60 Descending Denver Center
02:53PM 40.3064 -104.0919 250° West 399 459 36,000  Level Denver Center
02:54PM 40.2625 -104.2519 250° West 397 457 36,000  Level Denver Center
02:55PM 40.2192 -104.4106 250° West 394 453 36,000  Level Denver Center
02:56PM 40.1814 -104.5469 250° West 397 457 36,000  Level Denver Center
02:57PM 40.1433 -104.6831 250° West 398 458 36,000  Level Denver Center
02:58PM 40.1050 -104.8206 250° West 398 458 36,100  Climbing Denver Center
02:59PM 40.0661 -104.9556 249° West 396 456 36,000 -60 Descending Denver Center
03:00PM 40.0281 -105.0903 250° West 394 453 36,000  Level Denver Center
03:01PM 39.9894 -105.2267 250° West 400 460 36,000  Level Denver Center
03:02PM 39.9500 -105.3650 250° West 405 466 36,000  Level Denver Center
03:03PM 39.9036 -105.5228 249° West 397 457 36,000  Level Denver Center
03:04PM 39.8647 -105.6600 250° West 399 459 36,000  Level Denver Center
03:05PM 39.8236 -105.7997 249° West 410 472 36,100  Climbing Denver Center
03:06PM 39.7819 -105.9378 249° West 408 470 36,100 -60 Level Denver Center
03:07PM 39.7425 -106.0775 250° West 408 470 36,000 -60 Descending Denver Center
03:08PM 39.7006 -106.2164 249° West 408 470 36,000  Level Denver Center
03:09PM 39.6644 -106.3450 250° West 405 466 36,000  Level Denver Center
03:10PM 39.6233 -106.4828 249° West 408 470 36,000  Level Denver Center
03:11PM 39.5769 -106.6369 249° West 405 466 36,000  Level Denver Center
03:12PM 39.5306 -106.7919 249° West 412 474 36,000  Level Denver Center
03:13PM 39.4897 -106.9211 248° West 408 470 36,000  Level Denver Center
03:14PM 39.4508 -107.0539 249° West 411 473 36,000  Level Denver Center
03:15PM 39.4031 -107.2089 248° West 414 476 36,100  Climbing Denver Center
03:16PM 39.3625 -107.3419 249° West 415 478 36,000 -60 Descending Denver Center
03:18PM 39.3147 -107.4961 248° West 414 476 36,000  Level Denver Center
03:19PM 39.2664 -107.6506 248° West 415 478 36,000  Level Denver Center
03:20PM 39.2175 -107.8075 248° West 420 483 36,000  Level Denver Center
03:21PM 39.1753 -107.9408 248° West 419 482 36,100  Climbing Denver Center
03:22PM 39.1267 -108.0975 248° West 420 483 36,000 -60 Descending Denver Center
03:23PM 39.0842 -108.2303 248° West 418 481 36,000  Level Denver Center
03:24PM 39.0347 -108.3861 248° West 419 482 36,000  Level Denver Center
03:25PM 38.9908 -108.5203 247° West 423 487 36,000  Level Denver Center
03:26PM 38.9475 -108.6531 247° West 422 486 36,000  Level Denver Center
03:27PM 38.8975 -108.8111 248° West 427 491 36,000  Level Denver Center
03:28PM 38.8539 -108.9450 247° West 425 489 36,000  Level Denver Center
03:29PM 38.8031 -109.1014 247° West 424 488 36,000  Level Denver Center
03:30PM 38.7589 -109.2350 247° West 424 488 36,000  Level Denver Center
03:31PM 38.7153 -109.3686 247° West 425 489 36,000  Level Denver Center
03:32PM 38.6631 -109.5236 247° West 424 488 36,000  Level Denver Center
03:33PM 38.6181 -109.6556 246° West 422 486 36,000  Level Denver Center
03:34PM 38.5650 -109.8097 246° West 423 487 36,000  Level Denver Center
03:35PM 38.5197 -109.9428 247° West 424 488 36,000  Level Denver Center
03:36PM 38.4458 -110.0861 237° Southwest 433 498 36,000  Level Denver Center
03:37PM 38.3822 -110.2069 236° Southwest 430 495 36,000  Level Denver Center
03:38PM 38.3092 -110.3508 237° Southwest 433 498 36,000  Level Denver Center
03:39PM 38.2447 -110.4714 236° Southwest 430 495 36,000  Level Denver Center
03:40PM 38.1806 -110.5939 236° Southwest 434 499 36,000  Level Denver Center
03:41PM 38.1058 -110.7347 236° Southwest 431 496 36,000  Level Denver Center
03:42PM 38.0419 -110.8547 236° Southwest 429 494 36,000  Level Denver Center
03:43PM 37.9697 -110.9906 236° Southwest 429 494 36,000  Level Denver Center
03:44PM 37.9033 -111.1142 236° Southwest 425 489 36,000  Level Denver Center
03:46PM 37.8369 -111.2381 236° Southwest 425 489 36,000  Level Denver Center
03:47PM 37.7714 -111.3600 236° Southwest 422 486 36,000  Level Denver Center
03:48PM 37.6936 -111.5078 236° Southwest 421 484 36,000  Level Salt Lake Center
03:49PM 37.6128 -111.6528 235° Southwest 422 486 36,000  Level Salt Lake Center
03:50PM 37.5586 -111.7508 235° Southwest 425 489 36,000  Level Denver Center
03:51PM 37.4928 -111.8725 236° Southwest 421 484 36,000  Level Denver Center
03:52PM 37.4111 -112.0206 235° Southwest 426 490 36,000  Level Salt Lake Center
03:53PM 37.3711 -112.0947 236° Southwest 428 493 36,000  Level Los Angeles Center
03:54PM 37.3008 -112.2178 234° Southwest 431 496 36,000  Level Los Angeles Center
03:55PM 37.2333 -112.3411 236° Southwest 427 491 36,000  Level Los Angeles Center
03:55PM 37.2072 -112.3906 236° Southwest 427 491 36,000  Level Salt Lake Center
03:56PM 37.1503 -112.4897 234° Southwest 431 496 36,000  Level Los Angeles Center
03:57PM 37.0811 -112.6139 235° Southwest 432 497 36,000  Level Los Angeles Center
03:58PM 37.0100 -112.7403 235° Southwest 440 506 36,000  Level Los Angeles Center
03:59PM 36.9250 -112.8897 235° Southwest 438 504 36,100  Climbing Los Angeles Center
04:00PM 36.8544 -113.0142 235° Southwest 438 504 36,000 -60 Descending Los Angeles Center
04:01PM 36.7844 -113.1381 235° Southwest 437 503 36,000  Level Los Angeles Center
04:02PM 36.7131 -113.2606 234° Southwest 436 502 36,000  Level Los Angeles Center
04:03PM 36.6292 -113.4092 235° Southwest 438 504 36,000  Level Los Angeles Center
04:04PM 36.5586 -113.5325 235° Southwest 437 503 36,000  Level Los Angeles Center
04:05PM 36.4844 -113.6619 235° Southwest 439 505 36,000  Level Los Angeles Center
04:06PM 36.4136 -113.7853 235° Southwest 440 506 36,000  Level Los Angeles Center
04:07PM 36.3419 -113.9081 234° Southwest 439 505 36,000  Level Los Angeles Center
04:08PM 36.2703 -114.0314 234° Southwest 440 506 36,000  Level Los Angeles Center
04:09PM 36.1975 -114.1550 234° Southwest 442 509 36,000  Level Los Angeles Center
04:10PM 36.1089 -114.3036 234° Southwest 445 512 36,000  Level Los Angeles Center
04:11PM 36.0361 -114.4281 234° Southwest 446 513 36,000  Level Los Angeles Center
04:12PM 35.9617 -114.5522 233° Southwest 448 516 36,000  Level Los Angeles Center
04:13PM 35.8883 -114.6761 234° Southwest 447 514 36,000  Level Los Angeles Center
04:14PM 35.8144 -114.8022 234° Southwest 449 517 36,000  Level Los Angeles Center
04:16PM 35.7333 -114.9228 230° Southwest 454 522 36,000  Level Los Angeles Center
04:17PM 35.6486 -115.0406 229° Southwest 458 527 36,000  Level Los Angeles Center
04:18PM 35.5450 -115.1844 229° Southwest 463 533 36,000  Level Los Angeles Center
04:19PM 35.4592 -115.3017 228° Southwest 462 532 36,000  Level Los Angeles Center
04:20PM 35.3736 -115.4186 228° Southwest 461 531 36,000  Level Los Angeles Center
04:21PM 35.2883 -115.5364 228° Southwest 461 531 36,000  Level Los Angeles Center
04:22PM 35.2081 -115.6456 228° Southwest 456 525 36,000  Level Los Angeles Center
04:23PM 35.1228 -115.7619 228° Southwest 458 527 36,000  Level Los Angeles Center
04:24PM 35.0194 -115.9000 228° Southwest 460 529 36,000  Level Los Angeles Center
04:25PM 34.9339 -116.0156 228° Southwest 459 528 36,000 -900 Level Los Angeles Center
04:26PM 34.8469 -116.1317 228° Southwest 461 531 34,200 -1,500 Descending Los Angeles Center
04:27PM 34.7589 -116.2492 228° Southwest 466 536 32,900 -1,320 Descending Los Angeles Center
04:28PM 34.6681 -116.3706 228° Southwest 480 552 31,500 -1,440 Descending Los Angeles Center
04:29PM 34.5775 -116.4914 228° Southwest 482 555 30,000 -1,560 Descending Los Angeles Center
04:30PM 34.4667 -116.6364 227° Southwest 487 560 28,300 -1,740 Descending Los Angeles Center
04:31PM 34.3744 -116.7567 227° Southwest 485 558 26,400 -2,160 Descending Los Angeles Center
04:32PM 34.2842 -116.8756 227° Southwest 481 554 23,900 -2,400 Descending Los Angeles Center
04:33PM 34.1978 -116.9881 227° Southwest 459 528 21,500 -2,460 Descending Los Angeles Center
04:34PM 34.1167 -117.0833 224° Southwest 434 499 19,400 -2,040 Descending Southern California TRACON
04:35PM 34.0667 -117.2000 243° Southwest 406 467 17,900 -1,500 Descending Southern California TRACON
04:36PM 34.0333 -117.3167 251° West 357 411 16,400 -2,340 Descending Southern California TRACON
04:37PM 34.0333 -117.4500 270° West 353 406 13,200 -2,700 Descending Southern California TRACON
04:38PM 34.0167 -117.5667 260° West 346 398 11,100 -1,500 Descending Southern California TRACON
04:39PM 34.0167 -117.6667 270° West 311 358 10,200 -1,140 Descending Southern California TRACON
04:40PM 34.0000 -117.7667 259° West 303 349 8,900 -1,380 Descending Southern California TRACON
04:41PM 33.9833 -117.8667 259° West 295 339 7,500 -1,440 Descending Southern California TRACON
04:42PM 33.9833 -117.9667 270° West 286 329 6,100 -1,200 Descending Southern California TRACON
04:43PM 33.9667 -118.0500 256° West 272 313 5,100 -960 Descending Southern California TRACON
04:44PM 33.9667 -118.1333 270° West 239 275 4,200 -1,020 Descending Southern California TRACON
04:44PM 33.9606 -118.1636 256° West 242 278 3,600 -1,200 Descending Los Angeles Center
04:46PM 33.9517 -118.2403 262° West 234 269 2,400 -1,140 Descending Los Angeles Center
04:47PM 33.9442 -118.3186 263° West 213 245 1,300 -1,020 Descending Los Angeles Center
04:48PM 33.9406 -118.3653 265° West 168 193 400 -600 Descending Los Angeles Center
04:49PM 33.9367 -118.4044 263° West 155 178 100 -300 Descending Los Angeles Center
04:51PM 33.9333 -118.4000 259° West  Level FlightAware Approximate